Time;durP1;ratioP1;P1;durP2;ratioP2;P2;SDS_P1;SDS_P2;PMS_P1;PMS_P2;Temp;Humidity;BMP_temperature;BMP_pressure;BME280_temperature;BME280_humidity;BME280_pressure;Samples;Min_cycle;Max_cycle;Signal;HPM_P1;HPM_P2
2022/12/15 00:39:06;;;;;;;6.90;5.60;;;;;;;17.77;35.39;100521.81;5025355;28;20041;-63
2022/12/15 00:41:31;;;;;;;6.63;5.68;;;;;;;17.76;35.35;100533.56;5025454;28;20038;-62
2022/12/15 00:43:57;;;;;;;6.65;5.10;;;;;;;17.76;35.21;100530.88;5026846;28;20113;-62
2022/12/15 00:50:50;;;;;;;6.28;5.13;;;;;;;17.77;35.16;100529.88;5025855;28;20080;-63
2022/12/15 01:21:56;;;;;;;5.25;4.20;;;;;;;17.71;35.25;100540.28;5043600;28;20036;-63
2022/12/15 01:24:21;;;;;;;6.43;4.80;;;;;;;17.73;35.25;100550.84;5044143;28;20053;-62
2022/12/15 01:26:46;;;;;;;7.13;5.28;;;;;;;17.72;35.05;100549.16;5060385;28;20036;-63
2022/12/15 01:29:12;;;;;;;5.93;4.72;;;;;;;17.72;35.06;100559.94;5044732;28;20037;-63
2022/12/15 01:31:37;;;;;;;5.70;4.60;;;;;;;17.72;35.05;100558.06;5050667;28;20059;-64
2022/12/15 01:34:02;;;;;;;6.35;4.78;;;;;;;17.74;35.14;100566.00;5064254;28;20040;-63
2022/12/15 01:36:27;;;;;;;6.85;4.82;;;;;;;17.75;35.03;100564.97;5064238;28;20113;-63
2022/12/15 01:38:53;;;;;;;5.68;4.72;;;;;;;17.74;35.11;100563.31;5063988;28;20044;-64
2022/12/15 01:41:18;;;;;;;6.43;4.93;;;;;;;17.75;34.91;100567.66;5064232;28;20489;-63
2022/12/15 01:43:43;;;;;;;5.88;4.90;;;;;;;17.74;35.19;100572.19;5034270;28;20030;-63
2022/12/15 01:46:15;;;;;;;5.45;4.43;;;;;;;17.74;35.10;100579.44;5028292;28;20044;-63
2022/12/15 01:48:45;;;;;;;6.72;4.63;;;;;;;17.66;35.11;100558.72;5046108;28;20041;-63
2022/12/15 01:51:15;;;;;;;6.05;4.88;;;;;;;17.74;34.96;100569.50;5062859;28;20450;-63
2022/12/15 01:53:50;;;;;;;6.30;4.93;;;;;;;17.73;34.85;100564.28;5062979;28;20021;-63
2022/12/15 01:56:16;;;;;;;4.75;4.13;;;;;;;17.73;34.94;100556.22;5064085;28;20021;-62
2022/12/15 01:58:43;;;;;;;4.47;3.75;;;;;;;17.67;34.90;100560.44;5062569;28;20013;-63
2022/12/15 02:01:09;;;;;;;5.22;4.63;;;;;;;17.72;34.99;100560.75;5063749;28;20028;-62
2022/12/15 02:03:34;;;;;;;5.55;4.00;;;;;;;17.74;34.80;100568.69;5063782;28;20028;-63
2022/12/15 02:06:00;;;;;;;5.50;4.38;;;;;;;17.69;34.92;100565.63;5062818;28;20036;-62
2022/12/15 02:08:25;;;;;;;6.18;4.65;;;;;;;17.72;34.86;100576.91;5062161;28;20071;-62
2022/12/15 02:11:05;;;;;;;4.90;3.83;;;;;;;17.73;34.97;100580.41;5058563;28;20033;-63
2022/12/15 02:13:39;;;;;;;5.03;3.78;;;;;;;17.71;34.95;100582.41;5040875;28;20444;-63
2022/12/15 02:16:14;;;;;;;5.47;4.38;;;;;;;17.74;34.78;100588.34;5023709;28;20029;-62
2022/12/15 02:18:49;;;;;;;4.45;3.78;;;;;;;17.72;34.78;100584.97;5039067;28;20022;-63
2022/12/15 02:21:29;;;;;;;5.35;4.20;;;;;;;17.72;34.93;100584.13;5022244;28;20057;-63
2022/12/15 02:24:21;;;;;;;4.82;3.97;;;;;;;17.72;34.85;100584.13;5046669;28;20028;-63
2022/12/15 02:27:05;;;;;;;5.07;3.88;;;;;;;17.72;34.79;100578.75;5062533;28;20021;-62
2022/12/15 02:29:55;;;;;;;5.55;4.43;;;;;;;17.71;34.95;100577.03;5063705;28;20025;-63
2022/12/15 02:32:24;;;;;;;4.60;3.67;;;;;;;17.70;34.92;100576.22;5063819;28;20033;-63
2022/12/15 02:35:04;;;;;;;4.50;4.07;;;;;;;17.71;34.78;100575.22;5062393;28;20037;-63
2022/12/15 02:37:32;;;;;;;5.18;3.92;;;;;;;17.71;34.86;100577.03;5061720;28;20049;-64
2022/12/15 02:39:58;;;;;;;5.13;4.00;;;;;;;17.71;34.83;100577.91;5062472;28;20033;-63
2022/12/15 02:42:24;;;;;;;5.28;3.75;;;;;;;17.72;34.95;100581.44;5042718;28;20043;-63
2022/12/15 02:44:54;;;;;;;5.68;3.70;;;;;;;17.71;34.63;100579.72;5022543;28;20428;-63
2022/12/15 02:47:27;;;;;;;5.35;4.20;;;;;;;17.71;34.83;100582.41;5021936;28;20050;-63
2022/12/15 02:50:26;;;;;;;4.93;3.92;;;;;;;17.71;34.83;100580.59;5023860;28;20109;-63
2022/12/15 02:52:51;;;;;;;;;;;;;;;17.72;34.82;100578.75;5024174;28;20061;-63
2022/12/15 02:55:36;;;;;;;5.47;3.85;;;;;;;17.71;34.81;100577.91;5023460;28;19916;-63
2022/12/15 02:58:07;;;;;;;4.72;3.75;;;;;;;17.69;34.67;100579.91;5023438;28;20025;-63
2022/12/15 03:00:40;;;;;;;5.47;3.80;;;;;;;17.70;34.80;100580.75;5038821;28;20042;-63
2022/12/15 03:03:05;;;;;;;4.57;3.67;;;;;;;17.69;34.74;100584.44;5023582;28;20057;-63
2022/12/15 03:05:30;;;;;;;4.28;3.53;;;;;;;17.69;34.90;100584.44;5025646;28;20018;-63
2022/12/15 03:07:56;;;;;;;5.47;4.22;;;;;;;17.68;34.77;100583.63;5025848;28;20022;-62
2022/12/15 03:10:23;;;;;;;5.43;3.75;;;;;;;17.68;34.82;100583.63;5027815;28;20030;-63
2022/12/15 03:12:49;;;;;;;4.30;3.70;;;;;;;17.70;34.76;100588.81;5046673;28;20029;-63
2022/12/15 03:15:15;;;;;;;5.80;4.20;;;;;;;17.62;34.64;100580.75;5062166;28;20359;-63
2022/12/15 03:17:40;;;;;;;4.68;3.78;;;;;;;17.70;34.81;100591.50;5047478;28;20052;-63
2022/12/15 03:20:07;;;;;;;5.13;3.70;;;;;;;17.70;34.88;100596.88;5047049;28;20032;-62
2022/12/15 03:22:32;;;;;;;5.63;4.00;;;;;;;17.69;34.16;100600.59;5046539;28;20049;-63
2022/12/15 03:24:58;;;;;;;5.43;4.10;;;;;;;17.69;34.60;100609.50;5062549;28;20055;-62
2022/12/15 03:27:23;;;;;;;5.00;3.72;;;;;;;17.70;34.81;100608.47;5066464;28;20028;-62
2022/12/15 03:29:48;;;;;;;4.25;3.83;;;;;;;17.69;34.75;100608.66;5066616;28;20028;-62
2022/12/15 03:32:13;;;;;;;4.60;3.83;;;;;;;17.70;34.68;100607.63;5066163;28;20032;-63
2022/12/15 03:34:39;;;;;;;3.88;3.35;;;;;;;17.70;34.56;100605.78;5066226;28;20061;-63
2022/12/15 03:37:04;;;;;;;4.28;3.67;;;;;;;17.69;34.57;100605.97;5065980;28;20035;-62
2022/12/15 03:39:29;;;;;;;4.00;3.45;;;;;;;17.70;34.69;100608.47;5066209;28;20085;-62
2022/12/15 03:41:55;;;;;;;4.80;4.20;;;;;;;17.71;34.70;100609.31;5050078;28;20035;-62
2022/12/15 03:44:21;;;;;;;6.20;3.78;;;;;;;17.70;34.73;100604.94;5046238;28;20033;-62
2022/12/15 03:46:46;;;;;;;3.88;3.40;;;;;;;17.69;34.51;100605.97;5044804;28;20025;-62
2022/12/15 03:49:11;;;;;;;4.18;3.78;;;;;;;17.70;34.79;100611.16;5061966;28;20060;-63
2022/12/15 03:51:36;;;;;;;4.35;3.50;;;;;;;17.66;34.57;100608.97;5046342;28;20037;-62
2022/12/15 03:54:02;;;;;;;5.00;3.50;;;;;;;17.69;34.47;100612.19;5045671;28;20053;-64
2022/12/15 03:56:27;;;;;;;5.03;3.70;;;;;;;17.70;34.69;100611.16;5061752;28;20124;-63
2022/12/15 03:58:52;;;;;;;4.50;3.72;;;;;;;17.71;34.55;100620.94;5046095;28;20041;-63
2022/12/15 04:01:29;;;;;;;4.32;3.70;;;;;;;17.70;34.72;100613.00;5046151;28;20030;-63
2022/12/15 04:03:55;;;;;;;4.75;4.03;;;;;;;17.71;34.59;100614.69;5045717;28;20112;-63
2022/12/15 04:06:20;;;;;;;4.82;3.83;;;;;;;17.70;34.53;100607.63;5046238;28;20040;-63
2022/12/15 04:08:45;;;;;;;4.60;3.70;;;;;;;17.70;34.68;100613.00;5045700;28;20030;-63
2022/12/15 04:11:11;;;;;;;4.75;3.88;;;;;;;17.70;34.48;100615.69;5046047;28;20033;-63
2022/12/15 04:13:36;;;;;;;3.88;3.42;;;;;;;17.69;34.43;100614.88;5045489;28;20025;-64
2022/12/15 04:16:02;;;;;;;4.70;3.60;;;;;;;17.59;34.41;100595.38;5045267;28;20026;-63
2022/12/15 04:18:27;;;;;;;4.85;3.50;;;;;;;17.69;34.57;100619.41;5045572;28;20029;-63
2022/12/15 04:20:52;;;;;;;4.30;3.33;;;;;;;17.65;34.26;100621.59;5045798;28;20029;-62
2022/12/15 04:23:18;;;;;;;5.60;4.30;;;;;;;17.68;34.62;100620.41;5044229;28;20063;-63
2022/12/15 05:34:37;;;;;;;4.82;3.80;;;;;;;17.67;34.48;100637.53;5044214;28;20036;-61
2022/12/15 05:37:04;;;;;;;4.47;3.25;;;;;;;17.67;34.28;100646.47;5043465;28;20072;-62
2022/12/15 05:39:29;;;;;;;3.63;3.25;;;;;;;17.68;34.10;100647.31;5043823;28;20040;-62
2022/12/15 05:41:55;;;;;;;4.05;3.53;;;;;;;17.67;34.38;100649.16;5042964;28;20030;-61
2022/12/15 05:44:21;;;;;;;4.18;3.45;;;;;;;17.68;34.24;100637.38;5043608;28;20022;-61
2022/12/15 05:46:47;;;;;;;4.10;3.50;;;;;;;17.68;34.18;100645.47;5043400;28;20081;-61
2022/12/15 05:49:14;;;;;;;5.03;3.35;;;;;;;17.69;34.27;100652.50;5044454;28;20040;-62
2022/12/15 05:51:40;;;;;;;3.20;2.90;;;;;;;17.70;34.31;100651.50;5043708;28;20033;-61
2022/12/15 05:54:07;;;;;;;3.92;3.28;;;;;;;17.70;34.38;100647.97;5043178;28;20033;-61
2022/12/15 05:56:33;;;;;;;4.65;3.40;;;;;;;17.63;34.43;100644.28;5043908;28;20025;-61
2022/12/15 05:58:58;;;;;;;4.60;3.35;;;;;;;17.71;34.43;100655.03;5043171;28;20107;-61
2022/12/15 06:01:24;;;;;;;3.60;3.08;;;;;;;17.70;34.33;100656.03;5058930;28;20063;-61
2022/12/15 06:03:49;;;;;;;4.10;3.30;;;;;;;17.70;34.42;100656.88;5042289;28;20034;-61
2022/12/15 06:06:15;;;;;;;4.93;3.42;;;;;;;17.70;34.49;100662.25;5041194;28;20056;-61
2022/12/15 06:08:41;;;;;;;3.45;2.83;;;;;;;17.70;34.57;100664.94;5034319;28;20036;-61
2022/12/15 06:11:08;;;;;;;4.45;3.10;;;;;;;17.71;34.46;100663.94;5032032;28;20057;-60
2022/12/15 06:13:33;;;;;;;3.90;3.30;;;;;;;17.72;34.68;100664.78;5032964;28;20061;-60
2022/12/15 06:16:06;;;;;;;3.92;3.03;;;;;;;17.73;34.54;100666.47;5040931;28;20077;-61
2022/12/15 06:18:36;;;;;;;4.80;3.47;;;;;;;17.72;34.62;100673.69;5043440;28;20034;-61
2022/12/15 06:21:05;;;;;;;3.55;3.00;;;;;;;17.73;34.86;100677.22;5043794;28;20026;-60
2022/12/15 06:23:31;;;;;;;5.37;3.90;;;;;;;17.66;34.89;100668.97;5044099;28;20029;-61
2022/12/15 06:25:57;;;;;;;4.15;3.65;;;;;;;17.75;34.83;100691.34;5032972;28;20037;-61
2022/12/15 06:28:23;;;;;;;3.70;3.17;;;;;;;17.73;34.98;100682.59;5034929;28;20057;-60
2022/12/15 06:30:53;;;;;;;4.07;3.47;;;;;;;17.77;34.73;100688.53;5037152;28;20064;-60
2022/12/15 06:33:20;;;;;;;3.47;2.90;;;;;;;17.78;34.79;100682.97;5033226;28;20490;-61
2022/12/15 06:35:45;;;;;;;3.47;2.88;;;;;;;17.75;34.88;100683.28;5031779;28;20048;-61
2022/12/15 06:38:11;;;;;;;4.25;3.20;;;;;;;17.77;34.72;100686.66;5037611;28;20402;-60
2022/12/15 06:40:37;;;;;;;4.55;3.60;;;;;;;17.70;34.87;100674.84;5035498;28;20109;-60
2022/12/15 06:43:02;;;;;;;3.83;3.10;;;;;;;17.79;35.01;100686.50;5040401;28;20470;-61
2022/12/15 06:45:27;;;;;;;4.03;3.20;;;;;;;17.74;34.92;100676.25;5035668;28;20054;-60
2022/12/15 06:47:53;;;;;;;3.70;3.13;;;;;;;17.80;34.91;100691.72;5038401;28;20099;-60
2022/12/15 06:50:18;;;;;;;4.00;3.17;;;;;;;17.80;34.91;100693.53;5036915;28;20029;-61
2022/12/15 06:52:44;;;;;;;3.80;3.42;;;;;;;17.80;34.90;100707.84;5035626;28;20033;-61
2022/12/15 06:55:09;;;;;;;4.05;3.28;;;;;;;17.78;35.16;100707.16;5037797;28;20025;-61
2022/12/15 06:57:35;;;;;;;3.72;3.03;;;;;;;17.80;35.14;100715.94;5037207;28;20034;-61
2022/12/15 07:00:01;;;;;;;4.82;3.53;;;;;;;17.77;35.03;100693.91;5032855;28;20033;-61
2022/12/15 07:02:28;;;;;;;4.40;3.40;;;;;;;17.81;34.94;100712.22;5035176;28;20032;-61
2022/12/15 07:04:54;;;;;;;4.82;4.00;;;;;;;17.79;35.09;100708.84;5039337;28;20028;-61
2022/12/15 07:07:19;;;;;;;4.50;3.50;;;;;;;17.81;35.22;100714.91;5035546;28;20017;-61
2022/12/15 07:09:44;;;;;;;4.43;3.22;;;;;;;17.83;35.27;100718.25;5035394;28;20068;-62
2022/12/15 07:12:11;;;;;;;4.85;4.18;;;;;;;17.81;35.00;100709.53;5037831;28;20029;-62
2022/12/15 07:14:36;;;;;;;5.40;3.55;;;;;;;17.81;35.28;100706.84;5035968;28;20026;-61
2022/12/15 07:17:01;;;;;;;5.40;4.00;;;;;;;17.80;35.01;100702.47;5035569;28;20025;-61
2022/12/15 07:19:27;;;;;;;4.32;3.35;;;;;;;17.83;34.97;100704.81;5037053;28;20077;-61
2022/12/15 07:21:52;;;;;;;5.13;3.65;;;;;;;17.83;34.94;100710.19;5035542;28;20116;-62
2022/12/15 07:24:17;;;;;;;4.20;3.75;;;;;;;17.81;35.17;100701.47;5032851;28;20029;-61
2022/12/15 07:26:44;;;;;;;5.15;3.63;;;;;;;17.80;35.17;100693.53;5035568;28;20490;-61
2022/12/15 07:29:10;;;;;;;5.30;3.72;;;;;;;17.81;35.33;100704.16;5041242;28;20037;-61
2022/12/15 07:31:36;;;;;;;5.18;3.67;;;;;;;17.84;35.02;100711.91;5045916;28;20026;-61
2022/12/15 07:34:01;;;;;;;4.97;3.63;;;;;;;17.84;35.12;100714.59;5037490;28;20117;-61
2022/12/15 07:36:26;;;;;;;5.70;4.10;;;;;;;17.82;35.26;100707.69;5034979;28;20026;-61
2022/12/15 07:38:56;;;;;;;5.32;3.90;;;;;;;17.87;35.07;100721.47;5035988;28;20032;-61
2022/12/15 07:41:21;;;;;;;5.53;3.88;;;;;;;17.87;35.10;100721.47;5037159;28;20368;-61
2022/12/15 07:43:47;;;;;;;5.53;3.78;;;;;;;17.87;35.10;100724.16;5038142;28;20067;-62
2022/12/15 07:46:12;;;;;;;5.60;3.75;;;;;;;17.86;35.26;100733.25;5035639;28;20052;-62
2022/12/15 07:48:38;;;;;;;4.03;3.47;;;;;;;17.87;34.65;100734.91;5035241;28;20052;-61
2022/12/15 07:51:06;;;;;;;4.80;3.63;;;;;;;17.89;35.04;100739.13;5034629;28;20060;-61
2022/12/15 07:53:33;;;;;;;5.10;3.55;;;;;;;17.91;35.06;100745.16;5051442;28;20045;-61
2022/12/15 07:55:59;;;;;;;4.93;3.85;;;;;;;17.90;35.05;100748.03;5036969;28;20033;-61
2022/12/15 07:58:25;;;;;;;4.55;3.47;;;;;;;17.91;34.81;100755.94;5035683;28;20058;-61
2022/12/15 08:00:51;;;;;;;4.18;3.42;;;;;;;17.84;34.97;100732.53;5034668;28;20029;-63
2022/12/15 08:03:17;;;;;;;4.45;3.50;;;;;;;17.91;34.83;100755.94;5036534;28;20021;-61
2022/12/15 08:05:43;;;;;;;5.22;3.75;;;;;;;17.92;34.93;100754.91;5035454;28;20104;-61
2022/12/15 08:08:08;;;;;;;5.40;4.05;;;;;;;17.93;34.90;100756.63;5035222;28;20378;-61
2022/12/15 08:10:37;;;;;;;6.60;3.47;;;;;;;17.85;35.00;100748.53;5028636;28;20038;-61
2022/12/15 08:13:02;;;;;;;5.38;3.60;;;;;;;17.90;34.94;100750.72;5022026;28;20033;-60
2022/12/15 08:15:28;;;;;;;5.28;4.13;;;;;;;18.00;34.87;100764.84;5050911;28;20029;-61
2022/12/15 08:17:53;;;;;;;4.63;3.85;;;;;;;18.03;34.89;100758.31;5057963;28;20569;-61
2022/12/15 08:20:18;;;;;;;4.60;3.25;;;;;;;18.03;34.80;100766.38;5052675;28;20121;-60
2022/12/15 08:22:43;;;;;;;6.30;3.38;;;;;;;18.04;34.75;100770.75;5047515;28;20040;-61
2022/12/15 08:25:09;;;;;;;5.47;3.45;;;;;;;18.04;34.73;100763.50;5056574;28;20055;-61
2022/12/15 08:27:34;;;;;;;5.38;3.55;;;;;;;18.08;34.79;100772.94;5051969;28;20017;-61
2022/12/15 08:29:59;;;;;;;7.88;3.97;;;;;;;18.08;35.02;100780.16;5058488;28;20032;-61
2022/12/15 08:32:25;;;;;;;5.13;3.35;;;;;;;18.08;34.83;100777.47;5051000;28;20040;-61
2022/12/15 08:34:50;;;;;;;4.18;3.45;;;;;;;18.07;34.82;100771.25;5062536;28;20461;-60
2022/12/15 08:37:15;;;;;;;5.93;3.72;;;;;;;18.10;35.18;100775.47;5055032;28;20033;-61
2022/12/15 08:39:41;;;;;;;5.43;3.72;;;;;;;18.10;34.90;100775.47;5054042;28;20026;-61
2022/12/15 08:42:06;;;;;;;5.43;3.67;;;;;;;18.11;35.03;100772.63;5057909;28;20393;-61
2022/12/15 08:44:32;;;;;;;4.53;3.72;;;;;;;18.14;34.82;100777.66;5045045;28;20029;-62
2022/12/15 08:46:57;;;;;;;6.60;3.67;;;;;;;18.17;34.97;100785.38;5049138;28;20371;-61
2022/12/15 08:49:23;;;;;;;4.60;3.22;;;;;;;18.15;34.88;100763.19;5056185;28;20057;-61
2022/12/15 08:51:49;;;;;;;4.25;3.38;;;;;;;18.24;34.79;100777.50;5044404;28;20037;-61
2022/12/15 08:54:14;;;;;;;4.68;3.30;;;;;;;18.24;34.90;100775.66;5044122;28;20089;-62
2022/12/15 08:56:39;;;;;;;4.35;3.17;;;;;;;18.27;34.64;100774.47;5063954;28;20044;-61
2022/12/15 08:59:05;;;;;;;8.25;3.90;;;;;;;18.28;34.66;100784.22;5058227;28;20098;-61
2022/12/15 09:01:31;;;;;;;4.45;3.35;;;;;;;18.28;34.56;100784.22;5051529;28;20012;-61
2022/12/15 09:03:57;;;;;;;5.20;3.80;;;;;;;18.30;34.58;100781.34;5056907;28;20033;-61
2022/12/15 09:06:30;;;;;;;3.75;3.40;;;;;;;18.30;34.53;100786.75;5063952;28;20113;-61
2022/12/15 09:08:57;;;;;;;4.70;3.95;;;;;;;18.31;34.40;100783.03;5043985;28;20067;-61
2022/12/15 09:11:24;;;;;;;4.43;3.63;;;;;;;18.32;34.47;100785.59;5051183;28;20024;-62
2022/12/15 09:13:49;;;;;;;5.82;3.70;;;;;;;18.32;34.39;100790.97;5063645;28;20511;-62
2022/12/15 09:16:16;;;;;;;4.22;3.15;;;;;;;18.31;34.43;100794.66;5048281;28;20470;-61
2022/12/15 09:18:43;;;;;;;6.43;3.63;;;;;;;18.28;34.59;100783.38;5061809;28;20032;-61
2022/12/15 09:21:10;;;;;;;5.55;4.00;;;;;;;18.32;34.46;100792.81;5063917;28;20017;-61
2022/12/15 09:23:35;;;;;;;3.88;3.40;;;;;;;18.31;34.50;100791.97;5052726;28;20022;-62
2022/12/15 09:26:02;;;;;;;6.15;3.40;;;;;;;18.33;34.43;100787.25;5057881;28;20108;-61
2022/12/15 09:28:28;;;;;;;5.95;3.70;;;;;;;18.31;34.88;100794.66;5062938;28;20100;-61
2022/12/15 09:31:00;;;;;;;4.47;3.90;;;;;;;18.31;34.57;100796.50;5064461;28;20037;-61
2022/12/15 09:33:25;;;;;;;6.50;3.38;;;;;;;18.31;34.89;100793.81;5053938;28;20032;-61
2022/12/15 09:35:51;;;;;;;7.53;3.85;;;;;;;18.31;34.56;100804.56;5044381;28;20030;-61
2022/12/15 09:38:16;;;;;;;10.63;3.60;;;;;;;18.31;34.69;100799.19;5043394;28;20082;-61
2022/12/15 09:40:41;;;;;;;8.77;4.00;;;;;;;18.31;34.68;100804.56;5044178;28;20163;-61
2022/12/15 09:43:11;;;;;;;5.50;3.33;;;;;;;18.30;34.47;100808.28;5039256;28;20086;-61
2022/12/15 09:45:38;;;;;;;;;;;;;;;18.29;34.43;100802.06;5042622;28;20549;-61
2022/12/15 09:48:11;;;;;;;5.55;3.92;;;;;;;18.30;34.48;100808.28;5043666;28;19978;-61
2022/12/15 09:50:38;;;;;;;7.25;3.83;;;;;;;18.25;34.57;100808.78;5057407;28;20017;-62
2022/12/15 09:53:09;;;;;;;8.48;4.47;;;;;;;18.23;34.57;100813.50;5045282;28;20060;-62
2022/12/15 09:55:34;;;;;;;6.13;4.43;;;;;;;18.28;34.55;100818.38;5025709;28;20037;-61
2022/12/15 09:58:50;;;;;;;6.55;4.70;;;;;;;18.29;34.22;100818.19;5041373;28;20033;-61
2022/12/15 10:01:41;;;;;;;6.70;4.60;;;;;;;18.29;34.47;100817.38;4964810;28;20054;-60
2022/12/15 10:04:25;;;;;;;5.75;4.38;;;;;;;18.28;34.15;100818.38;4982121;28;20422;-62
2022/12/15 10:06:57;;;;;;;7.68;4.82;;;;;;;18.26;34.40;100820.38;4982170;28;20699;-61
2022/12/15 10:09:29;;;;;;;4.90;3.92;;;;;;;18.25;34.12;100824.94;4965875;28;20058;-61
2022/12/15 10:12:01;;;;;;;5.50;4.20;;;;;;;18.24;34.33;100824.09;4982421;28;20075;-61
2022/12/15 10:14:30;;;;;;;5.22;4.00;;;;;;;18.22;33.82;100826.13;4965011;28;20034;-61
2022/12/15 10:17:35;;;;;;;5.88;4.55;;;;;;;18.23;34.06;100826.97;4965418;28;20039;-60
2022/12/15 10:20:06;;;;;;;8.70;4.15;;;;;;;18.23;34.07;100832.34;4982432;28;20039;-62
2022/12/15 10:22:35;;;;;;;6.68;4.32;;;;;;;18.21;34.40;100821.72;4982137;28;20459;-63
2022/12/15 10:25:24;;;;;;;8.30;4.93;;;;;;;18.28;34.30;100831.84;4981967;28;20043;-61
2022/12/15 10:28:08;;;;;;;;;;;;;;;18.29;34.37;100820.06;4982974;28;20030;-62
2022/12/15 10:30:34;;;;;;;6.68;4.53;;;;;;;18.31;34.25;100812.63;4981867;28;19953;-63
2022/12/15 10:33:18;;;;;;;6.00;3.95;;;;;;;18.31;34.53;100812.63;5033018;28;20082;-62
2022/12/15 10:35:45;;;;;;;7.35;4.00;;;;;;;18.35;34.61;100812.16;5042597;28;20032;-62
2022/12/15 10:38:33;;;;;;;6.57;4.35;;;;;;;18.35;34.38;100820.25;5050829;28;20041;-63
2022/12/15 10:41:01;;;;;;;6.25;4.15;;;;;;;18.35;34.42;100816.69;5063241;28;20025;-63
2022/12/15 10:43:34;;;;;;;7.82;4.22;;;;;;;18.35;34.52;100822.94;5050965;28;20033;-62
2022/12/15 10:46:14;;;;;;;5.15;4.10;;;;;;;18.37;34.54;100826.28;5042552;28;20029;-62
2022/12/15 10:48:44;;;;;;;6.07;4.40;;;;;;;18.37;34.53;100820.91;5053126;28;20072;-62
2022/12/15 10:51:12;;;;;;;7.47;4.63;;;;;;;18.38;34.35;100819.06;5046605;28;20017;-63
2022/12/15 10:53:43;;;;;;;8.05;5.05;;;;;;;18.32;34.39;100801.72;5022733;28;20026;-63
2022/12/15 10:56:17;;;;;;;8.05;4.43;;;;;;;18.37;34.32;100822.75;5061344;28;20041;-62
2022/12/15 10:58:57;;;;;;;7.05;4.40;;;;;;;18.41;34.31;100821.41;5049041;28;20040;-62
2022/12/15 11:01:25;;;;;;;4.97;4.00;;;;;;;18.46;34.08;100817.19;5049791;28;20025;-62
2022/12/15 11:03:51;;;;;;;8.90;5.20;;;;;;;18.48;33.92;100820.59;5061475;28;20017;-62
2022/12/15 11:06:39;;;;;;;5.95;4.68;;;;;;;18.50;34.04;100820.41;5054470;28;20033;-61
2022/12/15 11:09:25;;;;;;;6.60;4.32;;;;;;;18.52;33.81;100818.41;5052805;28;20044;-62
2022/12/15 11:14:46;;;;;;;5.85;4.60;;;;;;;18.52;33.80;100813.03;5039835;28;20036;-62
2022/12/15 11:17:22;;;;;;;5.45;4.28;;;;;;;18.54;33.96;100815.53;5041255;28;20022;-62
2022/12/15 11:19:55;;;;;;;5.15;4.38;;;;;;;18.53;33.89;100822.78;5027361;28;20505;-62
2022/12/15 11:22:40;;;;;;;7.18;3.75;;;;;;;18.55;33.87;100817.19;5050385;28;20028;-62
2022/12/15 11:25:25;;;;;;;5.13;4.25;;;;;;;18.53;33.87;100811.16;5056283;28;20025;-62
2022/12/15 11:27:53;;;;;;;6.30;3.60;;;;;;;18.54;33.99;100816.38;5043868;28;20572;-62
2022/12/15 11:30:21;;;;;;;5.43;4.00;;;;;;;18.56;33.70;100816.19;5044677;28;20029;-62
2022/12/15 11:32:54;;;;;;;4.55;3.80;;;;;;;18.59;33.73;100816.69;5045513;28;20029;-62
2022/12/15 11:35:28;;;;;;;5.13;3.97;;;;;;;18.61;33.68;100819.25;5044365;28;20025;-62
2022/12/15 11:38:04;;;;;;;4.93;3.83;;;;;;;18.61;33.77;100817.38;5046232;28;20116;-61
2022/12/15 11:40:40;;;;;;;4.88;4.15;;;;;;;18.57;33.75;100809.81;5045788;28;20030;-62
2022/12/15 11:43:25;;;;;;;5.15;3.83;;;;;;;18.60;34.02;100818.38;5046573;28;20044;-61
2022/12/15 11:46:24;;;;;;;5.15;4.00;;;;;;;18.59;33.71;100813.16;5026768;28;20034;-61
2022/12/15 11:49:32;;;;;;;4.63;4.00;;;;;;;18.60;33.90;100817.53;5026575;28;20054;-62
2022/12/15 11:52:07;;;;;;;7.40;4.82;;;;;;;18.58;34.19;100820.41;5042320;28;20033;-62
2022/12/15 11:54:52;;;;;;;5.50;4.50;;;;;;;18.59;34.28;100818.56;5044633;28;20033;-62
2022/12/15 11:57:39;;;;;;;5.47;4.00;;;;;;;18.59;34.31;100810.47;5045114;28;20083;-61
2022/12/15 12:00:09;;;;;;;5.50;4.18;;;;;;;18.59;34.04;100814.00;5046365;28;20061;-61
2022/12/15 12:02:49;;;;;;;6.13;4.47;;;;;;;18.62;34.20;100812.84;5043483;28;20386;-63
2022/12/15 12:05:55;;;;;;;6.18;4.53;;;;;;;18.63;34.42;100811.81;5044761;28;20033;-62
2022/12/15 12:08:37;;;;;;;6.25;4.78;;;;;;;18.62;34.44;100818.22;5030703;28;20046;-63
2022/12/15 12:11:47;;;;;;;6.85;4.32;;;;;;;18.60;34.34;100806.75;5056856;28;20021;-62
2022/12/15 12:14:26;;;;;;;6.07;4.40;;;;;;;18.65;34.65;100813.34;5012596;28;20038;-62
2022/12/15 12:17:10;;;;;;;5.35;4.20;;;;;;;18.66;34.50;100815.03;4992840;28;20041;-62
2022/12/15 12:19:44;;;;;;;7.65;4.28;;;;;;;18.66;34.47;100820.41;5023062;28;20062;-62
2022/12/15 12:22:28;;;;;;;4.38;3.95;;;;;;;18.67;34.48;100810.47;4990548;28;20042;-62
2022/12/15 12:25:09;;;;;;;8.43;5.03;;;;;;;18.67;34.12;100815.84;5022407;28;20096;-61
2022/12/15 12:27:48;;;;;;;7.20;4.32;;;;;;;18.67;34.55;100807.78;4995045;28;20023;-62
2022/12/15 12:30:14;;;;;;;;;;;;;;;18.67;34.27;100813.16;5020038;28;20045;-62
2022/12/15 12:32:46;;;;;;;5.53;4.53;;;;;;;18.66;34.47;100804.25;5007665;28;19920;-61
2022/12/15 12:35:20;;;;;;;4.82;4.20;;;;;;;18.65;34.51;100802.56;5006420;28;20060;-62
2022/12/15 12:37:57;;;;;;;5.18;4.00;;;;;;;18.66;34.58;100798.88;4992654;28;20101;-61
2022/12/15 12:40:34;;;;;;;5.90;4.57;;;;;;;18.64;34.22;100791.94;5019283;28;20547;-61
2022/12/15 12:43:01;;;;;;;8.38;4.95;;;;;;;18.69;34.19;100801.25;4997931;28;20037;-62
2022/12/15 12:45:53;;;;;;;7.60;5.10;;;;;;;18.68;34.48;100796.00;5043171;28;20093;-62
2022/12/15 12:48:36;;;;;;;7.43;4.65;;;;;;;18.62;34.63;100788.59;5047686;28;20045;-61
2022/12/15 12:51:15;;;;;;;9.40;4.97;;;;;;;18.66;34.34;100787.25;5063325;28;20025;-61
2022/12/15 12:53:40;;;;;;;10.27;5.22;;;;;;;18.67;34.41;100781.69;5063026;28;20032;-61
2022/12/15 12:56:06;;;;;;;5.57;4.20;;;;;;;18.66;34.52;100774.63;5048803;28;20080;-61
2022/12/15 12:58:37;;;;;;;6.28;4.88;;;;;;;18.65;34.35;100767.56;5059688;28;20029;-62
2022/12/15 13:01:17;;;;;;;5.30;4.18;;;;;;;18.60;34.56;100763.69;5051161;28;20028;-61
2022/12/15 13:03:43;;;;;;;5.57;4.70;;;;;;;18.65;34.71;100772.94;5051353;28;20017;-62
2022/12/15 13:06:41;;;;;;;6.18;4.45;;;;;;;18.64;34.62;100775.78;5044728;28;20018;-62
2022/12/15 13:09:15;;;;;;;5.18;4.65;;;;;;;18.64;34.85;100773.09;5055634;28;20026;-61
2022/12/15 13:12:00;;;;;;;10.10;5.18;;;;;;;18.61;34.93;100768.91;5057246;28;20027;-63
2022/12/15 13:14:34;;;;;;;9.07;5.53;;;;;;;18.64;35.06;100765.84;5040354;28;20125;-62
2022/12/15 13:17:03;;;;;;;6.75;5.53;;;;;;;18.64;35.07;100765.03;5051196;28;20025;-62
2022/12/15 13:19:56;;;;;;;7.00;5.40;;;;;;;18.67;34.72;100770.91;5051580;28;20030;-62
2022/12/15 13:22:24;;;;;;;6.10;5.20;;;;;;;18.67;34.76;100764.69;5062669;28;20132;-62
2022/12/15 13:24:50;;;;;;;9.88;5.40;;;;;;;18.68;34.91;100769.06;5056544;28;20386;-62
2022/12/15 13:27:15;;;;;;;6.90;4.97;;;;;;;18.70;35.16;100761.69;5053680;28;20025;-62
2022/12/15 13:29:55;;;;;;;7.85;5.32;;;;;;;18.70;34.71;100775.16;5051550;28;20032;-62
2022/12/15 13:32:28;;;;;;;8.73;5.63;;;;;;;18.73;34.90;100766.72;5051578;28;20045;-62
2022/12/15 13:34:54;;;;;;;7.65;6.10;;;;;;;18.75;34.64;100770.09;5062486;28;20035;-62
2022/12/15 13:37:44;;;;;;;7.15;5.47;;;;;;;18.64;34.72;100751.56;5053799;28;20026;-62
2022/12/15 13:40:21;;;;;;;10.63;5.35;;;;;;;18.72;35.06;100760.50;5060216;28;20032;-62
2022/12/15 13:42:56;;;;;;;11.55;6.20;;;;;;;18.73;34.84;100761.34;5044593;28;20022;-62
2022/12/15 13:45:51;;;;;;;10.13;5.53;;;;;;;18.73;35.01;100753.25;5052650;28;20031;-63
2022/12/15 13:48:51;;;;;;;8.45;5.28;;;;;;;18.72;34.87;100755.09;5045495;28;20141;-62
2022/12/15 13:51:34;;;;;;;6.20;5.05;;;;;;;18.74;34.82;100754.97;5044014;28;20048;-62
2022/12/15 13:54:20;;;;;;;9.25;5.30;;;;;;;18.73;34.94;100751.44;5046421;28;20029;-62
2022/12/15 13:57:00;;;;;;;11.52;5.85;;;;;;;18.73;35.28;100750.56;5029290;28;20031;-61
2022/12/15 13:59:33;;;;;;;8.95;5.25;;;;;;;18.75;35.17;100753.94;5042041;28;20041;-62
2022/12/15 14:01:59;;;;;;;9.27;5.72;;;;;;;18.64;35.63;100738.09;5057784;28;20466;-62
2022/12/15 14:04:24;;;;;;;11.18;5.72;;;;;;;18.75;36.44;100750.41;5043224;28;20059;-62
2022/12/15 14:06:59;;;;;;;8.15;5.53;;;;;;;18.78;35.51;100756.31;5049360;28;20037;-62